Time;durP1;ratioP1;P1;durP2;ratioP2;P2;SDS_P1;SDS_P2;PMS_P1;PMS_P2;Temp;Humidity;BMP_temperature;BMP_pressure;BME280_temperature;BME280_humidity;BME280_pressure;Samples;Min_cycle;Max_cycle;Signal;HPM_P1;HPM_P2
2023/07/16 00:01:49;;;;;;;1.25;0.88;;;;;;;25.32;50.87;100724.06;5052479;28;20033;-61
2023/07/16 00:04:15;;;;;;;5.70;0.90;;;;;;;25.37;50.57;100721.47;5050799;28;20065;-61
2023/07/16 00:06:40;;;;;;;3.92;1.05;;;;;;;25.41;51.07;100730.91;5050963;28;20029;-62
2023/07/16 00:09:05;;;;;;;3.08;1.38;;;;;;;25.44;50.59;100727.72;5054650;28;20486;-62
2023/07/16 00:11:31;;;;;;;2.80;0.80;;;;;;;25.49;50.91;100733.38;5054779;28;20025;-62
2023/07/16 00:13:56;;;;;;;1.08;0.80;;;;;;;25.50;50.56;100746.03;5055980;28;20040;-62
2023/07/16 00:16:21;;;;;;;3.88;1.02;;;;;;;25.55;50.10;100740.69;5055958;28;20033;-63
2023/07/16 00:18:47;;;;;;;3.42;0.88;;;;;;;25.54;50.44;100736.28;5054539;28;20469;-62
2023/07/16 00:21:12;;;;;;;1.38;0.47;;;;;;;25.58;50.31;100740.25;5054480;28;20051;-62
2023/07/16 00:23:38;;;;;;;1.08;0.73;;;;;;;25.60;49.57;100738.09;5055997;28;20029;-62
2023/07/16 00:26:03;;;;;;;3.20;0.65;;;;;;;25.60;49.76;100735.34;5055605;28;20029;-62
2023/07/16 00:28:29;;;;;;;1.95;0.75;;;;;;;25.59;49.35;100736.44;5055780;28;20155;-62
2023/07/16 00:30:55;;;;;;;2.13;0.82;;;;;;;25.55;49.69;100729.72;5054305;28;20036;-62
2023/07/16 00:33:20;;;;;;;2.92;0.80;;;;;;;25.51;49.67;100727.66;5055426;28;20045;-62
2023/07/16 00:35:49;;;;;;;2.40;0.52;;;;;;;25.46;49.35;100736.56;5054084;28;20510;-62
2023/07/16 00:38:17;;;;;;;1.73;0.60;;;;;;;25.42;49.97;100740.81;5054330;28;20055;-62
2023/07/16 00:40:42;;;;;;;2.65;0.70;;;;;;;25.35;49.57;100724.44;5055496;28;20377;-63
2023/07/16 00:43:08;;;;;;;1.60;0.55;;;;;;;25.33;49.59;100725.72;5037280;28;20048;-63
2023/07/16 00:45:33;;;;;;;1.63;0.50;;;;;;;25.29;49.29;100727.25;5020996;28;20111;-61
2023/07/16 00:47:59;;;;;;;4.90;1.15;;;;;;;25.26;49.18;100724.97;5037439;28;20514;-62
2023/07/16 00:50:24;;;;;;;1.13;0.63;;;;;;;25.23;49.67;100728.16;5037436;28;20095;-62
2023/07/16 00:52:50;;;;;;;3.40;0.70;;;;;;;25.20;49.14;100721.25;5037304;28;20381;-62
2023/07/16 00:55:16;;;;;;;4.65;1.17;;;;;;;25.19;49.47;100718.72;5054296;28;20038;-62
2023/07/16 00:57:41;;;;;;;4.43;0.90;;;;;;;25.16;49.55;100725.47;5055369;28;20116;-62
2023/07/16 01:00:07;;;;;;;2.45;0.95;;;;;;;25.13;49.39;100725.94;5054127;28;20036;-62
2023/07/16 01:02:33;;;;;;;2.78;0.70;;;;;;;25.10;49.26;100725.56;5055470;28;20075;-62
2023/07/16 01:04:59;;;;;;;6.47;1.10;;;;;;;25.05;49.26;100728.13;5054118;28;20021;-62
2023/07/16 01:07:25;;;;;;;3.55;0.73;;;;;;;25.02;49.38;100731.31;5055609;28;20042;-62
2023/07/16 01:09:51;;;;;;;5.63;0.85;;;;;;;24.98;49.39;100730.13;5053510;28;20497;-61
2023/07/16 01:12:17;;;;;;;2.58;1.02;;;;;;;24.94;49.38;100731.63;5054720;28;20037;-61
2023/07/16 01:14:42;;;;;;;3.03;0.90;;;;;;;24.94;49.37;100742.56;5020520;28;20140;-61
2023/07/16 01:17:08;;;;;;;1.83;0.70;;;;;;;24.94;49.45;100734.34;5053561;28;20468;-62
2023/07/16 01:19:34;;;;;;;2.15;0.65;;;;;;;24.92;49.32;100723.63;5035899;28;20094;-62
2023/07/16 01:22:11;;;;;;;1.27;0.68;;;;;;;24.91;49.57;100738.38;5052809;28;20021;-61
2023/07/16 01:25:09;;;;;;;5.50;0.95;;;;;;;24.91;49.34;100743.88;5054677;28;20044;-63
2023/07/16 01:27:52;;;;;;;1.48;0.77;;;;;;;24.92;49.18;100736.50;5054277;28;20037;-62
2023/07/16 01:30:19;;;;;;;1.42;0.80;;;;;;;24.88;49.13;100739.69;5053289;28;20445;-62
2023/07/16 01:32:46;;;;;;;2.35;1.00;;;;;;;24.87;49.45;100742.66;5036442;28;20120;-62
2023/07/16 01:35:12;;;;;;;2.50;1.08;;;;;;;24.85;49.46;100737.38;5053211;28;20041;-62
2023/07/16 01:37:37;;;;;;;2.42;0.85;;;;;;;24.82;50.01;100745.22;5036447;28;20033;-63
2023/07/16 01:40:03;;;;;;;5.47;1.00;;;;;;;24.81;49.26;100744.41;5052984;28;20497;-63
2023/07/16 01:42:29;;;;;;;1.75;1.02;;;;;;;24.79;49.54;100749.25;5052824;28;20047;-62
2023/07/16 01:44:55;;;;;;;1.85;0.93;;;;;;;24.76;49.54;100751.56;5055194;28;20033;-63
2023/07/16 01:47:41;;;;;;;2.67;0.80;;;;;;;24.73;49.20;100758.34;5053129;28;20036;-62
2023/07/16 01:50:07;;;;;;;10.80;1.90;;;;;;;24.69;49.75;100746.13;5054103;28;20044;-61
2023/07/16 01:52:33;;;;;;;4.57;1.10;;;;;;;24.67;49.32;100759.22;5052788;28;20029;-62
2023/07/16 01:54:58;;;;;;;4.25;1.17;;;;;;;24.66;49.92;100757.53;5053908;28;20477;-61
2023/07/16 01:57:23;;;;;;;2.88;2.08;;;;;;;24.65;49.68;100749.56;5052519;28;20028;-62
2023/07/16 01:59:49;;;;;;;2.92;1.20;;;;;;;24.64;50.09;100754.19;5035991;28;20033;-62
2023/07/16 02:02:14;;;;;;;3.47;1.50;;;;;;;24.65;49.49;100758.59;5052421;28;20031;-62
2023/07/16 02:04:39;;;;;;;6.50;0.93;;;;;;;24.64;50.14;100753.34;5036336;28;20037;-63
2023/07/16 02:07:05;;;;;;;9.02;1.48;;;;;;;24.64;50.24;100753.34;5052676;28;20020;-63
2023/07/16 02:09:30;;;;;;;1.63;0.80;;;;;;;24.61;50.00;100760.13;5035880;28;20025;-62
2023/07/16 02:11:56;;;;;;;4.07;1.30;;;;;;;24.60;50.12;100763.91;5052222;28;20025;-62
2023/07/16 02:14:21;;;;;;;4.68;1.48;;;;;;;24.61;49.56;100765.59;5035668;28;20548;-63
2023/07/16 02:16:46;;;;;;;4.20;0.98;;;;;;;24.60;49.76;100772.13;5052255;28;20453;-62
2023/07/16 02:19:12;;;;;;;2.80;1.20;;;;;;;24.58;49.67;100771.50;5052708;28;20032;-63
2023/07/16 02:21:37;;;;;;;3.50;1.23;;;;;;;24.59;50.16;100772.38;5052352;28;20484;-62
2023/07/16 02:24:03;;;;;;;3.47;2.25;;;;;;;24.60;50.02;100774.88;5053557;28;20024;-63
2023/07/16 02:26:28;;;;;;;3.45;0.82;;;;;;;24.61;49.91;100784.78;5052067;28;20032;-62
2023/07/16 02:28:54;;;;;;;4.32;1.25;;;;;;;24.63;49.54;100779.06;5053329;28;20029;-62
2023/07/16 02:31:19;;;;;;;1.83;0.77;;;;;;;24.66;49.87;100790.41;5052101;28;20025;-62
2023/07/16 02:33:44;;;;;;;3.15;1.35;;;;;;;24.66;49.14;100782.19;5053269;28;20501;-62
2023/07/16 02:36:10;;;;;;;9.13;1.33;;;;;;;24.68;49.78;100788.28;5053328;28;20024;-62
2023/07/16 02:38:35;;;;;;;4.32;1.17;;;;;;;24.70;48.96;100791.66;5035338;28;20560;-62
2023/07/16 02:41:01;;;;;;;7.50;1.10;;;;;;;24.68;49.07;100788.28;5052130;28;20017;-61
2023/07/16 02:43:26;;;;;;;3.65;0.88;;;;;;;24.70;49.42;100791.66;5051819;28;20377;-62
2023/07/16 02:45:51;;;;;;;8.73;1.52;;;;;;;24.69;49.05;100795.47;5053240;28;20036;-62
2023/07/16 02:48:17;;;;;;;8.70;1.38;;;;;;;24.68;49.51;100787.47;5051720;28;20108;-62
2023/07/16 02:50:42;;;;;;;4.43;1.08;;;;;;;24.66;49.30;100790.41;5035145;28;20102;-62
2023/07/16 02:53:08;;;;;;;4.18;1.27;;;;;;;24.65;48.80;100798.88;5051749;28;20420;-62
2023/07/16 02:55:34;;;;;;;5.57;1.55;;;;;;;24.61;48.57;100797.63;5051773;28;20029;-62
2023/07/16 02:58:04;;;;;;;2.97;0.90;;;;;;;24.60;48.75;100810.47;5035180;28;20430;-61
2023/07/16 03:00:30;;;;;;;7.47;1.58;;;;;;;24.56;49.07;100801.03;5051623;28;20059;-62
2023/07/16 03:02:55;;;;;;;3.17;1.45;;;;;;;24.54;48.47;100800.41;5034919;28;20017;-63
2023/07/16 03:05:20;;;;;;;9.00;1.42;;;;;;;24.53;48.95;100806.97;5052995;28;20091;-63
2023/07/16 03:07:46;;;;;;;1.52;1.17;;;;;;;24.51;48.27;100802.75;5051758;28;20412;-62
2023/07/16 03:10:11;;;;;;;6.65;1.40;;;;;;;24.43;48.54;100794.81;5019543;28;20035;-62
2023/07/16 03:12:37;;;;;;;7.60;1.30;;;;;;;24.46;48.48;100808.03;5052734;28;20059;-62
2023/07/16 03:15:02;;;;;;;6.05;1.15;;;;;;;24.45;47.95;100809.97;5052822;28;20063;-62
2023/07/16 03:17:28;;;;;;;4.53;1.38;;;;;;;24.45;47.87;100809.97;5051580;28;20475;-62
2023/07/16 03:19:53;;;;;;;12.30;1.80;;;;;;;24.45;47.86;100811.84;5035095;28;20040;-62
2023/07/16 03:22:18;;;;;;;14.95;2.55;;;;;;;24.45;48.23;100814.59;5018613;28;20029;-62
2023/07/16 03:24:44;;;;;;;3.05;1.70;;;;;;;24.41;47.91;100822.41;5052822;28;20061;-63
2023/07/16 03:27:09;;;;;;;6.15;1.30;;;;;;;24.41;47.53;100819.66;5052769;28;20033;-63
2023/07/16 03:29:34;;;;;;;3.28;1.50;;;;;;;24.41;48.04;100816.94;5051429;28;20037;-62
2023/07/16 03:32:00;;;;;;;6.43;1.35;;;;;;;24.39;47.60;100832.75;5053121;28;20037;-61
2023/07/16 03:34:26;;;;;;;4.05;1.63;;;;;;;24.38;47.10;100832.94;5018201;28;20400;-63
2023/07/16 03:36:52;;;;;;;5.53;1.08;;;;;;;24.32;47.23;100830.03;5034669;28;20033;-61
2023/07/16 03:39:17;;;;;;;3.20;1.17;;;;;;;24.30;47.64;100836.78;5034662;28;20078;-62
2023/07/16 03:41:42;;;;;;;6.82;1.52;;;;;;;24.26;47.66;100843.78;5051215;28;20052;-62
2023/07/16 03:44:08;;;;;;;8.90;1.40;;;;;;;24.23;47.13;100844.22;5036936;28;20072;-62
2023/07/16 03:46:33;;;;;;;2.17;1.70;;;;;;;24.23;46.75;100844.22;5056435;28;20086;-61
2023/07/16 03:48:59;;;;;;;4.97;1.70;;;;;;;24.21;46.89;100847.16;5038627;28;20045;-62
2023/07/16 03:51:24;;;;;;;12.02;1.98;;;;;;;24.20;47.08;100844.66;5038904;28;20116;-64
2023/07/16 03:53:50;;;;;;;4.93;1.33;;;;;;;24.09;47.03;100837.94;5038674;28;20116;-63
2023/07/16 03:56:15;;;;;;;4.53;1.70;;;;;;;24.15;46.40;100852.63;5038335;28;20028;-63
2023/07/16 03:58:40;;;;;;;9.60;1.75;;;;;;;24.12;46.64;100848.44;5055630;28;20542;-61
2023/07/16 04:01:06;;;;;;;2.75;1.02;;;;;;;24.13;46.14;100849.28;5055772;28;20036;-62
2023/07/16 04:03:31;;;;;;;6.90;1.73;;;;;;;24.09;46.80;100848.03;5054877;28;20481;-62
2023/07/16 04:06:09;;;;;;;4.53;1.10;;;;;;;24.10;46.88;100847.81;5055234;28;20036;-62
2023/07/16 04:08:35;;;;;;;4.95;1.10;;;;;;;24.09;46.14;100856.25;5055977;28;20029;-62
2023/07/16 04:11:01;;;;;;;8.52;1.70;;;;;;;24.08;46.92;100865.50;5037972;28;20033;-62
2023/07/16 04:13:26;;;;;;;12.45;1.90;;;;;;;24.08;46.33;100876.44;5055112;28;20033;-62
2023/07/16 04:15:54;;;;;;;5.95;1.48;;;;;;;24.08;46.06;100865.50;5054982;28;20036;-62
2023/07/16 04:18:22;;;;;;;4.97;1.45;;;;;;;24.08;46.44;100860.03;5054762;28;20037;-61
2023/07/16 04:20:47;;;;;;;3.92;1.13;;;;;;;24.11;46.44;100862.38;5055829;28;20036;-62
2023/07/16 04:23:12;;;;;;;10.27;1.33;;;;;;;24.11;45.91;100867.84;5056122;28;20037;-62
2023/07/16 04:25:38;;;;;;;7.30;1.50;;;;;;;24.15;46.48;100880.00;5055926;28;20086;-62
2023/07/16 04:28:03;;;;;;;4.50;1.48;;;;;;;24.16;46.05;100876.22;5054276;28;20057;-64
2023/07/16 04:30:29;;;;;;;5.75;1.75;;;;;;;24.22;46.34;100880.84;5021376;28;20033;-62
2023/07/16 04:32:54;;;;;;;6.82;1.20;;;;;;;24.24;45.74;100884.19;5055319;28;20040;-62
2023/07/16 04:35:20;;;;;;;2.67;1.30;;;;;;;24.23;46.25;100871.59;5054381;28;20116;-62
2023/07/16 04:37:45;;;;;;;7.00;2.20;;;;;;;24.33;45.40;100882.91;5037869;28;20041;-62
2023/07/16 04:40:11;;;;;;;7.68;1.27;;;;;;;24.40;45.89;100888.38;5055513;28;20083;-62
2023/07/16 04:42:36;;;;;;;8.00;1.67;;;;;;;24.42;45.65;100884.34;5054048;28;20123;-61
2023/07/16 04:45:02;;;;;;;5.18;1.27;;;;;;;24.51;45.86;100891.22;5054486;28;20057;-63
2023/07/16 04:47:28;;;;;;;5.85;1.92;;;;;;;24.58;45.28;100896.69;5054591;28;20531;-63
2023/07/16 04:49:53;;;;;;;3.25;1.50;;;;;;;24.65;45.07;100909.28;5043494;28;20037;-63
2023/07/16 04:52:18;;;;;;;13.13;2.10;;;;;;;24.72;44.95;100896.41;5017360;28;20042;-62
2023/07/16 04:54:44;;;;;;;8.10;1.80;;;;;;;24.74;44.89;100899.75;5050272;28;20558;-62
2023/07/16 04:57:09;;;;;;;5.40;2.03;;;;;;;24.88;44.99;100909.59;5053992;28;20033;-62
2023/07/16 04:59:35;;;;;;;5.25;1.80;;;;;;;24.96;44.76;100921.38;5053574;28;20037;-62
2023/07/16 05:02:04;;;;;;;5.43;1.70;;;;;;;25.00;44.20;100915.22;5055245;28;20404;-62
2023/07/16 05:04:30;;;;;;;9.52;2.05;;;;;;;25.07;43.94;100915.19;5037220;28;20086;-62
2023/07/16 05:06:55;;;;;;;6.07;1.60;;;;;;;25.14;44.26;100924.19;5053693;28;20033;-63
2023/07/16 05:09:21;;;;;;;9.55;1.65;;;;;;;25.22;44.01;100938.47;5037281;28;20037;-62
2023/07/16 05:11:46;;;;;;;6.80;1.80;;;;;;;25.29;43.83;100941.19;5053501;28;20519;-62
2023/07/16 05:14:12;;;;;;;3.85;2.08;;;;;;;25.36;43.29;100931.84;5037396;28;20032;-61
2023/07/16 05:16:37;;;;;;;4.65;2.10;;;;;;;25.44;43.72;100939.78;5018396;28;20458;-61
2023/07/16 05:19:03;;;;;;;11.80;2.47;;;;;;;25.54;43.54;100943.97;5017055;28;20037;-61
2023/07/16 05:21:28;;;;;;;8.25;1.83;;;;;;;25.63;43.52;100946.19;5033452;28;20030;-62
2023/07/16 05:23:53;;;;;;;5.10;1.83;;;;;;;25.70;43.07;100941.50;5034803;28;20033;-61
2023/07/16 05:26:19;;;;;;;5.53;2.17;;;;;;;25.81;42.57;100942.66;5033533;28;20033;-62
2023/07/16 05:28:44;;;;;;;6.78;2.35;;;;;;;25.88;42.97;100949.75;5049903;28;20029;-62
2023/07/16 05:31:09;;;;;;;6.35;2.30;;;;;;;25.93;42.70;100947.19;5033452;28;20029;-61
2023/07/16 05:33:35;;;;;;;8.30;2.67;;;;;;;26.01;42.26;100954.28;5034670;28;20448;-62
2023/07/16 05:36:00;;;;;;;10.43;2.10;;;;;;;26.11;42.01;100954.59;5032253;28;20479;-62
2023/07/16 05:38:26;;;;;;;8.20;2.53;;;;;;;26.21;42.34;100948.63;5017053;28;20092;-62
2023/07/16 05:40:51;;;;;;;4.13;2.53;;;;;;;26.30;41.85;100955.50;5033132;28;20038;-61
2023/07/16 05:43:17;;;;;;;3.72;2.05;;;;;;;26.40;41.58;100956.63;5052972;28;20082;-62
2023/07/16 05:45:42;;;;;;;7.90;2.80;;;;;;;26.52;41.75;100963.00;5053133;28;20452;-63
2023/07/16 05:48:08;;;;;;;8.20;2.10;;;;;;;26.65;41.10;100962.03;5053297;28;20163;-61
2023/07/16 05:50:33;;;;;;;6.32;2.53;;;;;;;26.74;40.74;100959.78;5053598;28;20401;-61
2023/07/16 05:52:59;;;;;;;8.27;2.80;;;;;;;26.86;40.59;100964.28;5053794;28;20122;-62
2023/07/16 05:55:24;;;;;;;9.70;2.80;;;;;;;26.97;41.08;100969.00;5036808;28;20504;-61
2023/07/16 05:57:50;;;;;;;7.45;2.65;;;;;;;27.09;41.01;100969.06;5052631;28;20040;-62
2023/07/16 06:00:16;;;;;;;7.28;2.72;;;;;;;27.24;39.83;100976.88;5052748;28;20512;-62
2023/07/16 06:02:42;;;;;;;10.30;3.30;;;;;;;27.38;39.59;100968.19;5036293;28;20079;-62
2023/07/16 06:05:07;;;;;;;6.55;2.45;;;;;;;27.54;40.51;100977.69;5035468;28;20115;-62
2023/07/16 06:07:34;;;;;;;21.48;2.75;;;;;;;27.65;40.10;100980.47;5035637;28;20095;-62
2023/07/16 06:09:59;;;;;;;6.15;2.10;;;;;;;27.79;39.66;100972.81;5052986;28;20037;-62
2023/07/16 06:12:25;;;;;;;6.13;2.78;;;;;;;27.89;39.36;100970.31;5036199;28;20037;-61
2023/07/16 06:15:09;;;;;;;5.50;3.03;;;;;;;28.06;38.86;100985.06;5019980;28;20443;-64
2023/07/16 06:17:35;;;;;;;9.02;3.10;;;;;;;28.19;39.38;100986.75;5052771;28;20041;-63
2023/07/16 06:20:02;;;;;;;10.45;3.13;;;;;;;28.29;38.26;100982.31;5052799;28;20074;-62
2023/07/16 06:22:28;;;;;;;5.97;2.33;;;;;;;28.40;38.33;100974.25;5053142;28;20029;-62
2023/07/16 06:24:53;;;;;;;5.93;2.78;;;;;;;28.51;38.16;100982.50;5052645;28;20367;-62
2023/07/16 06:27:18;;;;;;;7.45;2.70;;;;;;;28.61;37.94;100984.66;5053988;28;20132;-63
2023/07/16 06:29:44;;;;;;;8.95;3.70;;;;;;;28.73;37.72;100979.94;5036433;28;20036;-62
2023/07/16 06:32:10;;;;;;;8.23;2.90;;;;;;;28.85;38.17;100989.03;5052687;28;20098;-63
2023/07/16 06:34:36;;;;;;;7.75;3.10;;;;;;;28.90;37.71;100983.59;5033947;28;20390;-63
2023/07/16 06:37:01;;;;;;;9.25;3.22;;;;;;;29.01;37.04;100996.50;5048585;28;20040;-62
2023/07/16 06:39:26;;;;;;;5.10;2.72;;;;;;;29.12;37.13;100995.63;5034952;28;20033;-63
2023/07/16 06:41:52;;;;;;;6.82;3.00;;;;;;;29.27;36.85;100997.88;5051765;28;20037;-62
2023/07/16 06:44:17;;;;;;;5.97;2.55;;;;;;;29.40;37.53;101001.16;5051729;28;20033;-62
2023/07/16 06:46:42;;;;;;;13.10;2.85;;;;;;;29.48;37.17;101007.38;5051396;28;20544;-62
2023/07/16 06:49:08;;;;;;;8.73;3.78;;;;;;;29.52;36.18;101011.28;5053268;28;20029;-63
2023/07/16 06:51:33;;;;;;;6.03;2.88;;;;;;;29.58;36.71;101013.06;5052663;28;20041;-63
2023/07/16 06:53:59;;;;;;;6.22;2.97;;;;;;;29.70;36.83;101019.38;5051464;28;20029;-63
2023/07/16 06:56:25;;;;;;;4.55;2.55;;;;;;;29.73;36.31;101005.06;5052919;28;20400;-63
2023/07/16 06:58:50;;;;;;;6.18;2.85;;;;;;;29.81;35.53;101012.94;5052869;28;20098;-63
2023/07/16 07:01:15;;;;;;;6.07;2.70;;;;;;;29.87;35.45;101023.00;5034830;28;20405;-62
2023/07/16 07:03:41;;;;;;;5.13;2.75;;;;;;;29.93;35.84;101010.91;5051651;28;20124;-62
2023/07/16 07:06:06;;;;;;;8.82;2.75;;;;;;;29.99;35.88;101008.00;5051507;28;20033;-62
2023/07/16 07:08:32;;;;;;;10.10;2.80;;;;;;;30.10;35.63;101011.75;5034991;28;20037;-63
2023/07/16 07:10:57;;;;;;;7.10;3.22;;;;;;;30.23;35.19;101011.41;5052959;28;20033;-62
2023/07/16 07:13:24;;;;;;;7.13;2.90;;;;;;;30.34;35.60;101021.53;5034840;28;20052;-63
2023/07/16 07:15:49;;;;;;;6.75;3.10;;;;;;;30.44;34.56;101013.41;5034891;28;20037;-62
2023/07/16 07:18:14;;;;;;;8.05;2.90;;;;;;;30.54;34.53;101021.81;5052758;28;20041;-62
2023/07/16 07:20:40;;;;;;;8.63;2.97;;;;;;;30.65;34.67;101024.75;5034938;28;20496;-63
2023/07/16 07:23:06;;;;;;;6.80;3.20;;;;;;;30.70;34.56;101017.34;5051446;28;20507;-62
2023/07/16 07:25:31;;;;;;;7.68;3.15;;;;;;;30.71;34.86;101023.72;5051363;28;20040;-62
2023/07/16 07:27:57;;;;;;;6.15;2.78;;;;;;;30.87;34.30;101012.59;5051370;28;20024;-62
2023/07/16 07:30:22;;;;;;;8.68;2.45;;;;;;;31.07;34.38;101023.09;5052713;28;20568;-62
2023/07/16 07:32:47;;;;;;;5.78;2.90;;;;;;;31.17;34.30;101020.41;5051019;28;20037;-62
2023/07/16 07:35:13;;;;;;;12.00;2.90;;;;;;;31.23;33.73;101027.69;5051314;28;20045;-63
2023/07/16 07:37:38;;;;;;;7.45;2.45;;;;;;;31.38;34.35;101027.84;5034593;28;20110;-62
2023/07/16 07:40:04;;;;;;;5.72;3.00;;;;;;;31.33;34.09;101025.03;5052578;28;20029;-62
2023/07/16 07:42:29;;;;;;;8.98;2.83;;;;;;;31.61;33.18;101030.31;5052580;28;20033;-63
2023/07/16 07:44:55;;;;;;;8.38;2.70;;;;;;;31.81;33.14;101034.38;5052646;28;20033;-62
2023/07/16 07:47:21;;;;;;;9.73;2.78;;;;;;;31.96;32.92;101031.72;5051149;28;20040;-64
2023/07/16 07:49:46;;;;;;;4.65;3.05;;;;;;;32.06;33.46;101031.81;5051019;28;20037;-62
2023/07/16 07:52:11;;;;;;;7.72;2.88;;;;;;;32.15;32.78;101030.25;5034494;28;20029;-62
2023/07/16 07:54:37;;;;;;;9.23;2.60;;;;;;;32.26;32.52;101032.81;5051037;28;20492;-62
2023/07/16 07:57:04;;;;;;;8.38;3.00;;;;;;;32.39;31.97;101036.19;5051240;28;20037;-63
2023/07/16 07:59:30;;;;;;;7.10;3.00;;;;;;;32.64;32.53;101028.88;5051189;28;20037;-62
2023/07/16 08:01:56;;;;;;;5.55;2.65;;;;;;;32.72;31.81;101031.16;5051148;28;20025;-62
2023/07/16 08:04:21;;;;;;;6.40;2.65;;;;;;;32.57;32.10;101031.09;5052326;28;20029;-62
2023/07/16 08:06:46;;;;;;;4.90;2.67;;;;;;;32.52;31.66;101041.28;5051003;28;20051;-64
2023/07/16 08:09:12;;;;;;;9.18;2.53;;;;;;;32.48;32.43;101040.16;5051234;28;20037;-62
2023/07/16 08:11:37;;;;;;;6.07;2.67;;;;;;;32.41;31.88;101045.97;5052314;28;20051;-62
2023/07/16 08:14:03;;;;;;;6.20;2.60;;;;;;;32.61;31.92;101029.44;5034710;28;20067;-62
2023/07/16 08:16:28;;;;;;;8.50;2.85;;;;;;;32.87;31.28;101037.88;5051105;28;20539;-62
2023/07/16 08:18:53;;;;;;;12.05;2.80;;;;;;;33.04;31.91;101038.50;5034862;28;20086;-62
2023/07/16 08:21:19;;;;;;;5.15;2.83;;;;;;;33.10;31.36;101041.06;5051520;28;20048;-63
2023/07/16 08:23:47;;;;;;;5.75;2.55;;;;;;;33.04;31.24;101050.44;5052728;28;20040;-63
2023/07/16 08:26:12;;;;;;;6.03;2.65;;;;;;;33.14;31.46;101049.69;5051209;28;20546;-62
2023/07/16 08:28:38;;;;;;;8.30;2.40;;;;;;;33.30;30.58;101045.84;5050998;28;20140;-62
2023/07/16 08:31:03;;;;;;;5.07;2.78;;;;;;;33.15;31.37;101043.00;5037490;28;20083;-62
2023/07/16 08:33:29;;;;;;;9.43;2.40;;;;;;;33.11;30.96;101050.22;5057268;28;20083;-62
2023/07/16 08:35:54;;;;;;;6.43;2.13;;;;;;;33.42;30.86;101046.41;5057530;28;20041;-62
2023/07/16 08:38:19;;;;;;;12.30;2.58;;;;;;;33.82;30.20;101049.28;5057584;28;20112;-62
2023/07/16 08:40:47;;;;;;;11.00;2.65;;;;;;;33.76;30.56;101042.03;5040776;28;20123;-62
2023/07/16 08:43:15;;;;;;;5.95;2.70;;;;;;;33.79;30.27;101051.75;5057729;28;20048;-62
2023/07/16 08:45:42;;;;;;;7.63;2.00;;;;;;;33.71;30.48;101055.94;5058388;28;20033;-63
2023/07/16 08:48:08;;;;;;;4.75;2.50;;;;;;;33.78;30.46;101050.13;5022360;28;20041;-62
2023/07/16 08:50:35;;;;;;;5.68;1.95;;;;;;;33.22;31.04;101058.28;5054812;28;20033;-62
2023/07/16 08:53:01;;;;;;;4.80;2.35;;;;;;;33.54;31.14;101054.47;5055948;28;20029;-62
2023/07/16 08:55:27;;;;;;;9.32;2.92;;;;;;;33.76;29.94;101055.94;5053876;28;20068;-64
2023/07/16 08:57:53;;;;;;;6.88;2.00;;;;;;;34.10;30.32;101052.63;5055216;28;20522;-63
2023/07/16 09:00:18;;;;;;;6.95;2.72;;;;;;;33.37;30.40;101055.56;5054339;28;20044;-62
2023/07/16 09:02:44;;;;;;;7.28;2.58;;;;;;;32.95;31.25;101067.88;5053872;28;20028;-62
2023/07/16 09:05:09;;;;;;;5.18;3.17;;;;;;;32.96;30.62;101058.47;5055114;28;20096;-62
2023/07/16 09:07:37;;;;;;;5.22;1.98;;;;;;;33.09;31.03;101058.81;5055127;28;20396;-63
2023/07/16 09:10:03;;;;;;;5.20;2.58;;;;;;;33.58;29.66;101053.72;5054916;28;20055;-62
2023/07/16 09:12:29;;;;;;;4.45;2.15;;;;;;;33.68;30.60;101038.97;5036911;28;20093;-63
2023/07/16 09:14:55;;;;;;;6.10;1.98;;;;;;;33.62;29.82;101052.03;5060612;28;20046;-63
2023/07/16 09:17:24;;;;;;;4.63;2.28;;;;;;;33.59;30.49;101052.59;5051428;28;20037;-63
2023/07/16 09:19:53;;;;;;;3.63;2.40;;;;;;;34.22;28.92;101051.25;5036899;28;20033;-63
2023/07/16 09:22:19;;;;;;;7.85;3.33;;;;;;;34.10;30.32;101058.19;5033489;28;20037;-63
2023/07/16 09:24:48;;;;;;;5.45;2.90;;;;;;;34.26;29.05;101054.28;5017105;28;20029;-63
2023/07/16 09:27:14;;;;;;;7.97;2.85;;;;;;;34.49;29.28;101059.25;5033612;28;20053;-62
2023/07/16 09:29:40;;;;;;;6.22;2.13;;;;;;;34.26;29.30;101057.88;5034701;28;20061;-63
2023/07/16 09:32:05;;;;;;;3.83;2.15;;;;;;;34.21;29.63;101048.72;5033467;28;20442;-63
2023/07/16 09:34:31;;;;;;;5.55;2.30;;;;;;;33.81;29.86;101063.47;5033419;28;20041;-63
2023/07/16 09:36:57;;;;;;;6.28;1.90;;;;;;;33.77;29.22;101057.63;5029819;28;20048;-63
2023/07/16 09:39:25;;;;;;;3.50;2.03;;;;;;;34.11;28.77;101068.22;5017010;28;20029;-63
2023/07/16 09:41:50;;;;;;;9.13;2.25;;;;;;;33.76;29.29;101067.06;5033665;28;20116;-63
2023/07/16 09:44:16;;;;;;;7.13;2.38;;;;;;;33.85;28.82;101068.19;5033478;28;20116;-63
2023/07/16 09:46:43;;;;;;;5.68;1.88;;;;;;;34.22;29.62;101078.22;5034484;28;20555;-63
2023/07/16 09:49:09;;;;;;;8.50;2.60;;;;;;;33.84;28.83;101066.50;5033182;28;20029;-62
2023/07/16 09:51:38;;;;;;;6.60;2.22;;;;;;;34.00;28.64;101070.13;5033227;28;20041;-62
2023/07/16 09:54:04;;;;;;;6.45;1.60;;;;;;;34.30;28.23;101078.50;5032943;28;20037;-63
2023/07/16 09:56:51;;;;;;;6.30;2.38;;;;;;;34.46;28.64;101062.59;5032865;28;20405;-62
2023/07/16 09:59:19;;;;;;;7.22;2.03;;;;;;;34.80;28.32;101080.34;5032847;28;20057;-63
2023/07/16 10:01:45;;;;;;;6.55;2.08;;;;;;;35.06;27.93;101078.31;5032861;28;20370;-62
2023/07/16 10:04:15;;;;;;;5.60;1.90;;;;;;;35.59;27.37;101065.53;5032783;28;20040;-62
2023/07/16 10:06:50;;;;;;;2.70;1.50;;;;;;;35.40;27.85;101070.06;5016619;28;20109;-61
2023/07/16 10:09:38;;;;;;;4.53;1.65;;;;;;;35.00;27.81;101071.91;5034143;28;20040;-63
2023/07/16 10:12:25;;;;;;;3.97;1.55;;;;;;;34.74;28.57;101080.63;5032700;28;20037;-63
2023/07/16 10:14:53;;;;;;;8.20;2.20;;;;;;;34.51;28.37;101080.09;5032752;28;20083;-62
2023/07/16 10:17:25;;;;;;;10.65;2.10;;;;;;;35.18;28.25;101087.16;5034065;28;20084;-63
2023/07/16 10:20:00;;;;;;;;;;;;;;;34.84;28.88;101069.47;5033042;28;20033;-63
2023/07/16 10:22:32;;;;;;;6.97;1.77;;;;;;;34.44;28.58;101084.31;5032564;28;19913;-62
2023/07/16 10:24:58;;;;;;;4.78;1.58;;;;;;;34.00;28.91;101083.19;5048655;28;20054;-62
2023/07/16 10:27:28;;;;;;;3.25;1.70;;;;;;;33.98;28.68;101089.88;5032323;28;20173;-62
2023/07/16 10:29:54;;;;;;;5.38;1.90;;;;;;;34.30;28.97;101092.41;5032418;28;20021;-63
2023/07/16 10:32:20;;;;;;;3.05;1.50;;;;;;;34.45;28.06;101086.78;5032190;28;20029;-62
2023/07/16 10:34:45;;;;;;;2.05;1.10;;;;;;;34.68;28.53;101096.53;5033228;28;20423;-63
2023/07/16 10:37:11;;;;;;;3.15;1.40;;;;;;;34.53;27.96;101096.53;5015749;28;20171;-61
2023/07/16 10:39:46;;;;;;;2.97;1.45;;;;;;;34.91;27.85;101092.28;5032139;28;20370;-62
2023/07/16 10:42:11;;;;;;;3.35;1.45;;;;;;;34.90;28.23;101101.75;5032316;28;20033;-62
2023/07/16 10:44:36;;;;;;;2.78;1.77;;;;;;;35.11;27.62;101097.81;5032185;28;20385;-62
2023/07/16 10:47:02;;;;;;;5.28;1.60;;;;;;;35.40;27.53;101092.38;5032750;28;20412;-62
2023/07/16 10:49:28;;;;;;;3.75;1.60;;;;;;;35.07;27.82;101094.75;5032296;28;20124;-62
2023/07/16 10:51:53;;;;;;;2.10;1.40;;;;;;;35.12;27.37;101093.06;5031765;28;20029;-61
2023/07/16 10:54:20;;;;;;;4.32;1.63;;;;;;;34.83;28.28;101095.66;5031825;28;20033;-62
2023/07/16 10:56:47;;;;;;;4.25;1.95;;;;;;;34.73;27.91;101107.63;5031636;28;20021;-62
2023/07/16 10:59:12;;;;;;;2.40;1.35;;;;;;;34.37;27.90;101100.44;5033041;28;20037;-61
2023/07/16 11:01:38;;;;;;;4.75;1.75;;;;;;;34.50;28.42;101117.44;5033094;28;20385;-62
2023/07/16 11:04:07;;;;;;;2.47;1.38;;;;;;;34.17;28.65;101111.59;5031630;28;20033;-62
2023/07/16 11:06:33;;;;;;;4.13;1.52;;;;;;;33.96;28.01;101108.78;5031816;28;20112;-62
2023/07/16 11:09:11;;;;;;;2.70;1.58;;;;;;;33.81;28.62;101117.09;5031920;28;20540;-62
2023/07/16 11:11:37;;;;;;;2.88;1.33;;;;;;;34.00;28.78;101113.78;5048121;28;20025;-62
2023/07/16 11:14:06;;;;;;;3.00;1.30;;;;;;;33.86;27.95;101119.91;5031764;28;20090;-62
2023/07/16 11:16:36;;;;;;;2.58;1.40;;;;;;;34.75;27.30;101127.69;5031650;28;20029;-62
2023/07/16 11:19:05;;;;;;;5.70;1.67;;;;;;;35.26;26.68;101122.00;5031727;28;20523;-62
2023/07/16 11:21:32;;;;;;;3.50;1.55;;;;;;;34.92;27.52;101121.81;5031631;28;20517;-62